createdAt,value
2019-03-09T00:02:02.419Z,7.07
2019-03-09T00:04:31.741Z,6.63
2019-03-09T00:07:00.721Z,6.90
2019-03-09T00:09:29.747Z,8.40
2019-03-09T00:11:59.325Z,7.47
2019-03-09T00:14:29.119Z,9.87
2019-03-09T00:16:58.187Z,5.70
2019-03-09T00:19:27.533Z,7.17
2019-03-09T00:21:56.715Z,6.00
2019-03-09T00:24:51.337Z,6.57
2019-03-09T00:27:38.211Z,7.40
2019-03-09T00:30:36.623Z,7.40
2019-03-09T00:33:05.693Z,5.87
2019-03-09T00:35:34.651Z,3.53
2019-03-09T00:38:04.151Z,7.03
2019-03-09T00:40:33.132Z,7.50
2019-03-09T00:43:02.136Z,5.03
2019-03-09T00:45:31.406Z,4.77
2019-03-09T00:48:00.781Z,3.40
2019-03-09T00:50:29.820Z,5.53
2019-03-09T00:52:58.816Z,5.27
2019-03-09T00:55:27.867Z,7.33
2019-03-09T00:57:56.854Z,4.37
2019-03-09T01:00:26.052Z,2.90
2019-03-09T01:02:55.116Z,6.43
2019-03-09T01:05:24.090Z,3.33
2019-03-09T01:07:53.476Z,2.53
2019-03-09T01:10:22.479Z,4.43
2019-03-09T01:12:51.560Z,2.00
2019-03-09T01:15:20.836Z,2.43
2019-03-09T01:17:49.903Z,2.97
2019-03-09T01:20:18.998Z,3.63
2019-03-09T01:22:48.295Z,3.90
2019-03-09T01:25:17.358Z,5.17
2019-03-09T01:27:46.436Z,5.27
2019-03-09T01:30:17.978Z,4.60
2019-03-09T01:32:47.028Z,7.17
2019-03-09T01:35:16.094Z,3.10
2019-03-09T01:37:45.477Z,3.43
2019-03-09T01:40:15.393Z,5.07
2019-03-09T01:42:44.439Z,4.77
2019-03-09T01:45:14.395Z,3.47
2019-03-09T01:47:43.439Z,4.47
2019-03-09T01:50:12.599Z,3.07
2019-03-09T01:52:41.796Z,6.73
2019-03-09T01:55:12.291Z,6.87
2019-03-09T01:57:41.359Z,6.50
2019-03-09T02:00:11.016Z,6.27
2019-03-09T02:02:43.145Z,6.87
2019-03-09T02:05:13.533Z,11.03
2019-03-09T02:07:42.605Z,9.63
2019-03-09T02:10:11.810Z,12.33
2019-03-09T02:12:41.420Z,7.93
2019-03-09T02:15:10.735Z,12.50
2019-03-09T02:17:39.783Z,12.83
2019-03-09T02:20:09.743Z,12.63
2019-03-09T02:22:38.894Z,13.37
2019-03-09T02:25:08.089Z,11.83
2019-03-09T02:27:37.421Z,17.57
2019-03-09T02:30:07.002Z,16.57
2019-03-09T02:32:36.169Z,11.23
2019-03-09T02:35:06.703Z,13.67
2019-03-09T02:37:35.724Z,12.97
2019-03-09T02:40:11.507Z,14.93
2019-03-09T02:42:41.794Z,18.47
2019-03-09T02:45:13.252Z,9.10
2019-03-09T02:47:42.427Z,24.13
2019-03-09T02:50:12.657Z,18.77
2019-03-09T02:52:41.895Z,16.30
2019-03-09T02:55:11.201Z,12.97
2019-03-09T02:57:40.330Z,14.63
2019-03-09T03:00:12.719Z,17.03
2019-03-09T03:02:47.909Z,12.57
2019-03-09T03:05:17.223Z,11.00
2019-03-09T03:07:46.328Z,12.67
2019-03-09T03:10:15.387Z,16.17
2019-03-09T03:12:44.590Z,12.20
2019-03-09T03:15:15.534Z,10.43
2019-03-09T03:17:44.582Z,6.80
2019-03-09T03:20:13.910Z,9.93
2019-03-09T03:22:42.966Z,8.37
2019-03-09T03:25:13.426Z,12.53
2019-03-09T03:27:42.639Z,10.80
2019-03-09T03:30:11.711Z,14.73
2019-03-09T03:32:40.745Z,6.50
2019-03-09T03:35:17.016Z,7.40
2019-03-09T03:37:46.148Z,6.30
2019-03-09T03:40:15.395Z,7.37
2019-03-09T03:42:44.889Z,11.10
2019-03-09T03:45:14.447Z,12.07
2019-03-09T03:47:43.447Z,5.37
2019-03-09T03:50:12.888Z,9.00
2019-03-09T03:52:42.079Z,10.00
2019-03-09T03:55:11.859Z,11.23
2019-03-09T03:57:41.191Z,8.53
2019-03-09T04:00:10.639Z,9.97
2019-03-09T04:02:39.633Z,11.47
2019-03-09T04:05:09.097Z,12.33
2019-03-09T04:07:38.170Z,8.53
2019-03-09T04:10:07.589Z,9.00
2019-03-09T04:12:37.176Z,11.97
2019-03-09T04:15:07.110Z,7.03
2019-03-09T04:17:36.175Z,10.80
2019-03-09T04:20:05.716Z,9.43
2019-03-09T04:22:34.784Z,14.20
2019-03-09T04:25:04.043Z,9.80
2019-03-09T04:27:33.514Z,7.80
2019-03-09T04:30:02.624Z,8.37
2019-03-09T04:32:31.520Z,8.80
2019-03-09T04:35:00.651Z,9.40
2019-03-09T04:37:29.718Z,11.13
2019-03-09T04:39:58.693Z,7.30
2019-03-09T04:42:27.992Z,9.50
2019-03-09T04:44:57.156Z,9.93
2019-03-09T04:47:26.062Z,9.03
2019-03-09T04:49:54.966Z,9.63
2019-03-09T04:52:23.946Z,7.30
2019-03-09T04:54:53.119Z,9.57
2019-03-09T04:57:22.302Z,8.23
2019-03-09T04:59:51.390Z,9.00
2019-03-09T05:02:20.447Z,11.17
2019-03-09T05:04:51.180Z,8.33
2019-03-09T05:07:32.150Z,10.10
2019-03-09T05:10:58.824Z,7.97
2019-03-09T05:13:52.079Z,7.83
2019-03-09T05:16:21.146Z,12.27
2019-03-09T05:18:55.197Z,11.23
2019-03-09T05:21:24.460Z,14.40
2019-03-09T05:23:53.382Z,10.53
2019-03-09T05:26:22.357Z,12.03
2019-03-09T05:28:51.535Z,11.17
2019-03-09T05:31:20.674Z,7.43
2019-03-09T05:33:49.723Z,9.90
2019-03-09T05:36:18.867Z,8.50
2019-03-09T05:38:47.836Z,9.10
2019-03-09T05:41:16.914Z,12.13
2019-03-09T05:43:46.147Z,16.93
2019-03-09T05:46:15.258Z,10.73
2019-03-09T05:48:44.170Z,7.17
2019-03-09T05:51:13.959Z,8.93
2019-03-09T05:53:43.313Z,11.43
2019-03-09T05:56:12.370Z,10.93
2019-03-09T05:58:41.494Z,10.27
2019-03-09T06:01:10.435Z,10.20
2019-03-09T06:03:39.483Z,13.77
2019-03-09T06:06:16.793Z,16.67
2019-03-09T06:08:46.360Z,6.97
2019-03-09T06:11:15.495Z,12.23
2019-03-09T06:13:44.627Z,15.13
2019-03-09T06:16:13.711Z,19.93
2019-03-09T06:18:42.946Z,14.10
2019-03-09T06:21:13.120Z,13.10
2019-03-09T06:23:42.190Z,10.97
2019-03-09T06:26:11.269Z,11.07
2019-03-09T06:28:40.480Z,10.47
2019-03-09T06:31:09.551Z,10.07
2019-03-09T06:33:39.247Z,7.80
2019-03-09T06:36:44.689Z,11.07
2019-03-09T06:39:42.648Z,11.13
2019-03-09T06:42:43.994Z,8.67
2019-03-09T06:45:17.746Z,10.87
2019-03-09T06:47:47.079Z,14.87
2019-03-09T06:50:17.934Z,12.40
2019-03-09T06:52:46.998Z,10.63
2019-03-09T06:55:16.376Z,12.60
2019-03-09T06:57:45.420Z,12.93
2019-03-09T07:00:35.478Z,17.40
2019-03-09T07:03:05.071Z,13.80
2019-03-09T07:05:34.140Z,12.40
2019-03-09T07:08:03.379Z,14.27
2019-03-09T07:10:32.337Z,13.30
2019-03-09T07:13:01.802Z,13.33
2019-03-09T07:15:33.128Z,19.33
2019-03-09T07:18:07.510Z,15.40
2019-03-09T07:20:36.726Z,11.30
2019-03-09T07:23:05.866Z,17.23
2019-03-09T07:25:34.922Z,13.47
2019-03-09T07:28:12.042Z,17.43
2019-03-09T07:30:41.100Z,17.27
2019-03-09T07:33:10.153Z,14.13
2019-03-09T07:35:39.377Z,16.33
2019-03-09T07:38:08.479Z,16.43
2019-03-09T07:40:37.444Z,12.17
2019-03-09T07:43:06.590Z,13.70
2019-03-09T07:45:35.680Z,14.60
2019-03-09T07:48:04.758Z,12.10
2019-03-09T07:50:34.058Z,16.50
2019-03-09T07:53:03.115Z,18.47
2019-03-09T07:55:32.309Z,10.70
2019-03-09T07:58:02.977Z,18.70
2019-03-09T08:00:32.117Z,13.30
2019-03-09T08:03:01.163Z,13.10
2019-03-09T08:05:30.471Z,14.70
2019-03-09T08:07:59.583Z,14.70
2019-03-09T08:10:28.960Z,14.87
2019-03-09T08:12:58.156Z,12.53
2019-03-09T08:15:27.231Z,12.63
2019-03-09T08:17:56.337Z,12.70
2019-03-09T08:20:25.754Z,11.53
2019-03-09T08:22:54.823Z,13.20
2019-03-09T08:25:23.909Z,9.17
2019-03-09T08:27:53.040Z,15.83
2019-03-09T08:30:22.965Z,11.17
2019-03-09T08:32:52.120Z,16.23
2019-03-09T08:35:21.982Z,15.67
2019-03-09T08:37:51.797Z,17.37
2019-03-09T08:40:20.961Z,10.93
2019-03-09T08:42:50.210Z,15.77
2019-03-09T08:45:19.532Z,17.27
2019-03-09T08:47:52.406Z,12.33
2019-03-09T08:50:20.855Z,10.77
2019-03-09T08:52:49.950Z,13.87
2019-03-09T08:55:19.356Z,9.93
2019-03-09T08:57:48.527Z,13.83
2019-03-09T09:00:25.925Z,13.10
2019-03-09T09:02:55.176Z,16.73
2019-03-09T09:05:24.717Z,14.43
2019-03-09T09:07:53.796Z,19.17
2019-03-09T09:10:23.168Z,13.03
2019-03-09T09:12:52.289Z,13.23
2019-03-09T09:15:21.351Z,16.20
2019-03-09T09:17:50.474Z,14.33
2019-03-09T09:20:20.386Z,12.43
2019-03-09T09:22:49.462Z,14.73
2019-03-09T09:25:18.600Z,20.20
2019-03-09T09:27:47.669Z,20.37
2019-03-09T09:30:24.448Z,22.13
2019-03-09T09:32:53.535Z,18.07
2019-03-09T09:35:24.739Z,16.40
2019-03-09T09:37:53.918Z,12.57
2019-03-09T09:40:23.364Z,18.87
2019-03-09T09:42:52.441Z,15.70
2019-03-09T09:45:21.757Z,17.50
2019-03-09T09:47:50.864Z,16.50
2019-03-09T09:50:19.921Z,21.63
2019-03-09T09:52:49.137Z,22.23
2019-03-09T09:55:18.293Z,18.60
2019-03-09T09:57:47.385Z,20.00
2019-03-09T10:00:18.510Z,20.77
2019-03-09T10:02:47.583Z,21.17
2019-03-09T10:05:16.667Z,18.03
2019-03-09T10:07:46.056Z,20.20
2019-03-09T10:10:16.440Z,18.80
2019-03-09T10:12:45.514Z,20.53
2019-03-09T10:15:17.095Z,17.10
2019-03-09T10:17:46.190Z,20.57
2019-03-09T10:20:15.257Z,20.60
2019-03-09T10:22:44.531Z,22.77
2019-03-09T10:25:13.924Z,20.17
2019-03-09T10:27:43.050Z,20.13
2019-03-09T10:30:14.931Z,19.27
2019-03-09T10:32:44.006Z,16.80
2019-03-09T10:35:13.086Z,19.40
2019-03-09T10:37:42.241Z,23.30
2019-03-09T10:40:11.326Z,23.23
2019-03-09T10:42:40.482Z,25.40
2019-03-09T10:45:10.066Z,21.77
2019-03-09T10:47:39.058Z,26.57
2019-03-09T10:50:10.102Z,19.07
2019-03-09T10:52:39.405Z,24.43
2019-03-09T10:55:10.382Z,22.97
2019-03-09T10:57:39.458Z,30.27
2019-03-09T11:00:13.120Z,20.77
2019-03-09T11:02:42.223Z,23.87
2019-03-09T11:05:11.689Z,24.00
2019-03-09T11:07:40.752Z,19.30
2019-03-09T11:10:09.949Z,25.90
2019-03-09T11:12:39.037Z,25.47
2019-03-09T11:15:08.555Z,25.63
2019-03-09T11:17:37.633Z,27.53
2019-03-09T11:20:07.437Z,26.67
2019-03-09T11:22:36.684Z,27.77
2019-03-09T11:25:05.874Z,23.70
2019-03-09T11:27:35.049Z,34.10
2019-03-09T11:30:04.331Z,26.83
2019-03-09T11:32:34.462Z,30.57
2019-03-09T11:35:03.578Z,32.20
2019-03-09T11:37:34.145Z,23.33
2019-03-09T11:40:03.209Z,31.70
2019-03-09T11:42:32.263Z,33.37
2019-03-09T11:45:01.490Z,33.27
2019-03-09T11:47:30.632Z,31.30
2019-03-09T11:49:59.673Z,36.70
2019-03-09T11:52:29.309Z,34.33
2019-03-09T11:54:58.386Z,31.20
2019-03-09T11:57:27.400Z,31.67
2019-03-09T11:59:56.608Z,28.47
2019-03-09T12:02:25.695Z,34.03
2019-03-09T12:04:54.757Z,27.67
2019-03-09T12:07:23.919Z,29.63
2019-03-09T12:09:52.985Z,32.30
2019-03-09T12:12:21.978Z,32.43
2019-03-09T12:14:51.236Z,38.30
2019-03-09T12:17:20.193Z,30.57
2019-03-09T12:19:49.256Z,34.77
2019-03-09T12:22:19.637Z,33.40
2019-03-09T12:24:52.312Z,39.53
2019-03-09T12:27:21.517Z,36.10
2019-03-09T12:29:50.586Z,37.33
2019-03-09T12:32:19.656Z,37.10
2019-03-09T12:34:49.004Z,35.37
2019-03-09T12:37:18.064Z,38.47
2019-03-09T12:40:01.834Z,33.90
2019-03-09T12:42:30.843Z,35.00
2019-03-09T12:45:00.407Z,34.97
2019-03-09T12:47:29.502Z,41.60
2019-03-09T12:49:58.571Z,39.40
2019-03-09T12:52:27.948Z,33.73
2019-03-09T12:54:57.166Z,30.80
2019-03-09T12:57:26.339Z,43.30
2019-03-09T12:59:55.521Z,36.30
2019-03-09T13:02:24.605Z,31.27
2019-03-09T13:04:53.782Z,35.17
2019-03-09T13:07:24.255Z,39.27
2019-03-09T13:09:53.344Z,43.63
2019-03-09T13:12:22.517Z,39.97
2019-03-09T13:14:51.748Z,35.93
2019-03-09T13:17:20.875Z,48.20
2019-03-09T13:19:49.955Z,36.70
2019-03-09T13:22:19.103Z,37.53
2019-03-09T13:24:48.272Z,37.67
2019-03-09T13:27:17.282Z,28.77
2019-03-09T13:29:46.719Z,33.23
2019-03-09T13:32:15.795Z,34.63
2019-03-09T13:34:44.952Z,36.37
2019-03-09T13:37:14.202Z,37.40
2019-03-09T13:39:43.347Z,36.90
2019-03-09T13:42:12.597Z,41.07
2019-03-09T13:44:41.928Z,35.33
2019-03-09T13:47:12.113Z,34.10
2019-03-09T13:49:41.195Z,34.57
2019-03-09T13:52:10.331Z,36.87
2019-03-09T13:54:39.651Z,36.17
2019-03-09T13:57:08.831Z,38.30
2019-03-09T13:59:38.154Z,37.37
2019-03-09T14:02:13.177Z,31.17
2019-03-09T14:04:42.646Z,25.37
2019-03-09T14:07:11.816Z,33.37
2019-03-09T14:09:40.930Z,32.70
2019-03-09T14:12:10.068Z,28.77
2019-03-09T14:14:39.126Z,48.77
2019-03-09T14:17:08.275Z,38.87
2019-03-09T14:19:37.631Z,38.93
2019-03-09T14:22:06.628Z,40.27
2019-03-09T14:24:35.535Z,34.77
2019-03-09T14:27:04.810Z,40.10
2019-03-09T14:29:34.050Z,28.13
2019-03-09T14:32:03.143Z,29.27
2019-03-09T14:34:51.668Z,17.43
2019-03-09T14:37:20.777Z,9.70
2019-03-09T14:39:49.840Z,11.93
2019-03-09T14:42:19.146Z,6.23
2019-03-09T14:44:48.206Z,4.43
2019-03-09T14:47:17.194Z,9.27
2019-03-09T14:49:47.662Z,4.13
2019-03-09T14:52:16.679Z,10.07
2019-03-09T14:54:45.746Z,8.90
2019-03-09T14:57:15.154Z,8.63
2019-03-09T14:59:44.131Z,6.93
2019-03-09T15:02:13.231Z,15.90
2019-03-09T15:04:42.483Z,12.20
2019-03-09T15:07:11.571Z,8.80
2019-03-09T15:09:40.725Z,11.00
2019-03-09T15:12:09.933Z,10.90
2019-03-09T15:14:39.051Z,5.67
2019-03-09T15:17:08.167Z,11.50
2019-03-09T15:19:37.419Z,10.27
2019-03-09T15:22:06.503Z,10.30
2019-03-09T15:24:35.497Z,15.50
2019-03-09T15:27:04.806Z,9.37
2019-03-09T15:29:33.897Z,15.00
2019-03-09T15:32:03.134Z,12.27
2019-03-09T15:34:32.301Z,17.13
2019-03-09T15:37:01.206Z,14.33
2019-03-09T15:39:30.310Z,13.83
2019-03-09T15:41:59.705Z,13.33
2019-03-09T15:44:28.791Z,15.60
2019-03-09T15:46:57.923Z,16.23
2019-03-09T15:49:27.481Z,12.07
2019-03-09T15:51:56.637Z,14.43
2019-03-09T15:54:25.633Z,13.57
2019-03-09T15:56:54.904Z,16.00
2019-03-09T15:59:24.026Z,10.53
2019-03-09T16:01:53.105Z,10.93
2019-03-09T16:04:22.447Z,13.70
2019-03-09T16:06:51.434Z,13.90
2019-03-09T16:09:20.510Z,14.23
2019-03-09T16:11:50.456Z,11.40
2019-03-09T16:14:19.523Z,14.83
2019-03-09T16:16:48.595Z,13.83
2019-03-09T16:19:19.600Z,13.43
2019-03-09T16:21:48.600Z,18.70
2019-03-09T16:24:17.694Z,11.53
2019-03-09T16:26:46.879Z,10.70
2019-03-09T16:29:16.054Z,18.37
2019-03-09T16:31:45.164Z,16.67
2019-03-09T16:34:14.478Z,12.83
2019-03-09T16:36:43.546Z,14.93
2019-03-09T16:39:13.515Z,16.80
2019-03-09T16:41:42.948Z,16.93
2019-03-09T16:44:12.024Z,10.60
2019-03-09T16:46:41.440Z,18.43
2019-03-09T16:49:11.033Z,13.20
2019-03-09T16:51:40.583Z,16.80
2019-03-09T16:54:09.701Z,12.83
2019-03-09T16:56:39.140Z,18.23
2019-03-09T16:59:08.225Z,12.27
2019-03-09T17:01:37.315Z,17.57
2019-03-09T17:04:06.606Z,18.17
2019-03-09T17:06:35.737Z,13.97
2019-03-09T17:09:05.728Z,15.33
2019-03-09T17:11:34.909Z,14.43
2019-03-09T17:14:04.411Z,13.57
2019-03-09T17:16:33.417Z,16.93
2019-03-09T17:19:02.608Z,17.20
2019-03-09T17:21:32.303Z,12.53
2019-03-09T17:24:01.515Z,19.60
2019-03-09T17:26:30.926Z,17.47
2019-03-09T17:29:00.255Z,12.37
2019-03-09T17:31:29.371Z,16.07
2019-03-09T17:33:58.611Z,14.97
2019-03-09T17:36:27.611Z,14.97
2019-03-09T17:38:56.688Z,15.10
2019-03-09T17:41:26.632Z,9.03
2019-03-09T17:43:55.674Z,12.77
2019-03-09T17:46:24.768Z,9.13
2019-03-09T17:48:54.211Z,15.53
2019-03-09T17:51:23.283Z,11.00
2019-03-09T17:53:52.463Z,14.23
2019-03-09T17:56:21.806Z,12.33
2019-03-09T17:58:50.859Z,7.73
2019-03-09T18:01:19.928Z,9.10
2019-03-09T18:03:49.178Z,7.60
2019-03-09T18:06:18.262Z,9.00
2019-03-09T18:08:47.578Z,10.27
2019-03-09T18:11:16.970Z,11.27
2019-03-09T18:13:46.056Z,11.70
2019-03-09T18:16:15.218Z,10.43
2019-03-09T18:18:44.578Z,9.27
2019-03-09T18:21:14.025Z,10.93
2019-03-09T18:23:43.366Z,10.00
2019-03-09T18:26:12.517Z,7.63
2019-03-09T18:28:42.508Z,8.47
2019-03-09T18:31:13.178Z,7.00
2019-03-09T18:33:42.247Z,13.67
2019-03-09T18:36:11.299Z,9.17
2019-03-09T18:38:40.826Z,11.97
2019-03-09T18:41:09.949Z,10.03
2019-03-09T18:43:39.053Z,10.03
2019-03-09T18:46:08.317Z,11.90
2019-03-09T18:48:37.422Z,19.83
2019-03-09T18:51:06.643Z,11.57
2019-03-09T18:53:35.913Z,12.33
2019-03-09T18:56:05.007Z,13.97
2019-03-09T18:58:34.003Z,14.07
2019-03-09T19:01:05.856Z,16.87
2019-03-09T19:03:35.071Z,14.43
2019-03-09T19:06:04.463Z,17.93
2019-03-09T19:08:33.559Z,12.20
2019-03-09T19:11:02.631Z,15.33
2019-03-09T19:13:31.847Z,16.37
2019-03-09T19:16:02.013Z,11.53
2019-03-09T19:18:31.079Z,17.27
2019-03-09T19:21:00.173Z,16.37
2019-03-09T19:23:29.211Z,9.50
2019-03-09T19:25:58.283Z,9.90
2019-03-09T19:28:27.470Z,11.57
2019-03-09T19:30:56.639Z,10.00
2019-03-09T19:33:25.717Z,15.13
2019-03-09T19:35:54.959Z,12.33
2019-03-09T19:38:24.029Z,12.07
2019-03-09T19:40:53.099Z,18.07
2019-03-09T19:43:22.320Z,11.90
2019-03-09T19:45:51.451Z,12.37
2019-03-09T19:48:20.459Z,13.10
2019-03-09T19:50:50.939Z,13.07
2019-03-09T19:53:20.008Z,14.27
2019-03-09T19:55:49.078Z,13.00
2019-03-09T19:58:18.296Z,16.40
2019-03-09T20:00:49.478Z,13.10
2019-03-09T20:03:18.576Z,11.43
2019-03-09T20:05:47.761Z,14.30
2019-03-09T20:08:16.842Z,14.53
2019-03-09T20:10:45.906Z,16.40
2019-03-09T20:13:17.527Z,13.83
2019-03-09T20:15:46.673Z,17.13
2019-03-09T20:18:15.903Z,19.67
2019-03-09T20:20:44.968Z,14.47
2019-03-09T20:23:14.152Z,8.97
2019-03-09T20:25:43.433Z,18.43
2019-03-09T20:28:12.511Z,22.80
2019-03-09T20:30:41.613Z,20.07
2019-03-09T20:33:10.913Z,13.80
2019-03-09T20:35:40.007Z,12.93
2019-03-09T20:38:09.184Z,15.07
2019-03-09T20:40:38.465Z,10.73
2019-03-09T20:43:07.556Z,15.17
2019-03-09T20:45:36.817Z,11.93
2019-03-09T20:48:06.076Z,11.93
2019-03-09T20:50:35.297Z,10.60
2019-03-09T20:53:04.439Z,13.83
2019-03-09T20:55:33.769Z,14.60
2019-03-09T20:58:02.903Z,16.47
2019-03-09T21:00:32.035Z,16.13
2019-03-09T21:03:01.460Z,17.83
2019-03-09T21:05:30.562Z,15.70
2019-03-09T21:07:59.698Z,18.13
2019-03-09T21:10:29.059Z,12.83
2019-03-09T21:13:00.553Z,14.83
2019-03-09T21:15:30.019Z,16.80
2019-03-09T21:17:59.150Z,17.67
2019-03-09T21:20:28.445Z,19.13
2019-03-09T21:22:57.578Z,17.07
2019-03-09T21:25:26.665Z,15.17
2019-03-09T21:27:55.788Z,19.30
2019-03-09T21:30:25.296Z,16.47
2019-03-09T21:32:54.470Z,17.90
2019-03-09T21:35:23.477Z,16.27
2019-03-09T21:37:53.502Z,17.57
2019-03-09T21:40:22.829Z,16.07
2019-03-09T21:42:52.084Z,12.53
2019-03-09T21:45:21.303Z,19.10
2019-03-09T21:47:50.364Z,18.03
2019-03-09T21:50:19.464Z,12.53
2019-03-09T21:52:48.728Z,15.53
2019-03-09T21:55:17.872Z,14.47
2019-03-09T21:57:46.930Z,17.93
2019-03-09T22:00:18.130Z,11.27
2019-03-09T22:02:47.194Z,19.93
2019-03-09T22:05:17.158Z,15.07
2019-03-09T22:07:46.350Z,13.77
2019-03-09T22:10:15.640Z,14.50
2019-03-09T22:12:44.696Z,16.37
2019-03-09T22:15:14.330Z,18.50
2019-03-09T22:17:43.589Z,13.57
2019-03-09T22:20:12.742Z,18.03
2019-03-09T22:22:46.031Z,13.27
2019-03-09T22:25:15.156Z,15.53
2019-03-09T22:27:44.200Z,16.37
2019-03-09T22:30:13.825Z,11.20
2019-03-09T22:32:42.897Z,13.90
2019-03-09T22:35:12.652Z,16.20
2019-03-09T22:37:42.045Z,10.00
2019-03-09T22:40:12.465Z,10.30
2019-03-09T22:42:41.579Z,11.93
2019-03-09T22:45:11.251Z,14.90
2019-03-09T22:47:40.357Z,13.40
2019-03-09T22:50:11.137Z,14.63
2019-03-09T22:52:40.401Z,15.80
2019-03-09T22:55:10.662Z,13.37
2019-03-09T22:57:39.887Z,10.27
2019-03-09T23:00:11.499Z,9.23
2019-03-09T23:02:40.627Z,13.83
2019-03-09T23:05:10.055Z,11.37
2019-03-09T23:07:39.397Z,13.80
2019-03-09T23:10:10.675Z,13.33
2019-03-09T23:12:40.116Z,14.20
2019-03-09T23:15:10.533Z,11.73
2019-03-09T23:17:39.609Z,10.37
2019-03-09T23:20:10.382Z,8.93
2019-03-09T23:22:39.424Z,9.87
2019-03-09T23:25:08.842Z,13.43
2019-03-09T23:27:38.070Z,10.10
2019-03-09T23:30:15.926Z,17.47
2019-03-09T23:32:45.524Z,13.83
2019-03-09T23:35:14.971Z,17.43
2019-03-09T23:37:44.375Z,12.27
2019-03-09T23:40:14.505Z,17.00
2019-03-09T23:42:43.551Z,21.90
2019-03-09T23:45:13.424Z,19.57
2019-03-09T23:47:42.916Z,14.47
2019-03-09T23:50:12.876Z,16.13
2019-03-09T23:52:41.980Z,15.57
2019-03-09T23:55:21.165Z,13.07
2019-03-09T23:57:41.938Z,15.30
